Time;durP1;ratioP1;P1;durP2;ratioP2;P2;SDS_P1;SDS_P2;PMS_P1;PMS_P2;Temp;Humidity;BMP_temperature;BMP_pressure;BME280_temperature;BME280_humidity;BME280_pressure;Samples;Min_cycle;Max_cycle;Signal;HPM_P1;HPM_P2
2022/03/03 00:01:05;;;;;;;16.05;8.77;;;;;;;1.00;46.99;99431.44;4456318;32;35097;-73
2022/03/03 00:03:35;;;;;;;17.77;9.30;;;;;;;0.08;48.66;99424.34;4460232;32;34549;-74
2022/03/03 00:06:02;;;;;;;21.17;8.90;;;;;;;-0.05;48.57;99429.91;4456419;32;33730;-74
2022/03/03 00:08:31;;;;;;;23.12;10.65;;;;;;;-0.07;49.99;99427.31;4465363;32;34786;-73
2022/03/03 00:10:59;;;;;;;17.98;8.07;;;;;;;0.23;48.70;99433.34;4415901;32;34296;-73
2022/03/03 00:13:28;;;;;;;20.83;9.85;;;;;;;0.02;49.12;99430.97;4457489;32;34561;-74
2022/03/03 00:15:56;;;;;;;20.85;10.23;;;;;;;-0.12;51.01;99435.66;4443381;32;33695;-74
2022/03/03 00:18:25;;;;;;;23.60;10.40;;;;;;;0.45;48.52;99428.09;4467622;32;34034;-73
2022/03/03 00:20:53;;;;;;;15.10;8.77;;;;;;;0.56;49.51;99436.09;4470400;32;35027;-74
2022/03/03 00:23:21;;;;;;;19.42;8.75;;;;;;;1.20;46.46;99426.91;4468978;32;34597;-74
2022/03/03 00:25:50;;;;;;;21.67;9.80;;;;;;;1.23;46.27;99428.66;4443021;32;33999;-73
2022/03/03 00:28:18;;;;;;;18.87;9.80;;;;;;;0.56;47.32;99426.75;4454924;32;33685;-73
2022/03/03 00:30:46;;;;;;;18.80;9.60;;;;;;;-0.53;51.39;99423.19;4470088;32;34920;-73
2022/03/03 00:33:15;;;;;;;19.12;10.05;;;;;;;-0.46;51.41;99424.25;4454331;32;34496;-73
2022/03/03 00:35:43;;;;;;;17.87;10.23;;;;;;;-0.41;52.09;99433.84;4442102;32;33488;-74
2022/03/03 00:38:12;;;;;;;22.75;9.82;;;;;;;0.15;49.85;99433.97;4440179;32;33885;-73
2022/03/03 00:40:40;;;;;;;15.95;7.70;;;;;;;-0.59;51.92;99430.63;4440885;32;35052;-73
2022/03/03 00:43:08;;;;;;;17.92;9.38;;;;;;;0.36;50.10;99432.94;4427471;32;34560;-73
2022/03/03 00:45:37;;;;;;;18.90;8.52;;;;;;;0.17;50.00;99429.78;4440660;32;33613;-73
2022/03/03 00:48:06;;;;;;;25.15;10.38;;;;;;;0.88;47.58;99429.41;4440095;32;33363;-73
2022/03/03 00:50:34;;;;;;;20.02;9.82;;;;;;;-0.66;52.23;99424.41;4455745;32;34225;-73
2022/03/03 00:53:03;;;;;;;23.55;8.77;;;;;;;-0.33;52.15;99423.88;4442803;32;34402;-74
2022/03/03 00:55:31;;;;;;;22.50;8.95;;;;;;;0.26;51.20;99418.94;4454397;32;32984;-73
2022/03/03 00:57:59;;;;;;;19.90;10.05;;;;;;;-0.42;52.90;99418.44;4440759;32;33898;-74
2022/03/03 01:00:27;;;;;;;21.40;9.02;;;;;;;0.07;50.97;99417.53;4453934;32;35057;-73
2022/03/03 01:02:56;;;;;;;24.60;10.25;;;;;;;-0.74;53.64;99404.50;4454395;32;34430;-74
2022/03/03 01:05:24;;;;;;;19.25;9.95;;;;;;;-0.12;53.07;99408.34;4467170;32;33563;-74
2022/03/03 01:07:52;;;;;;;17.85;8.73;;;;;;;0.43;50.34;99409.25;4442164;32;32357;-74
2022/03/03 01:10:21;;;;;;;18.10;9.57;;;;;;;0.59;49.43;99404.59;4469509;32;35997;-74
2022/03/03 01:12:49;;;;;;;18.85;8.98;;;;;;;0.36;49.67;99402.19;4469970;32;34876;-74
2022/03/03 01:15:18;;;;;;;20.67;10.13;;;;;;;0.41;49.53;99408.34;4468609;32;33774;-74
2022/03/03 01:17:49;;;;;;;21.05;9.02;;;;;;;-0.88;52.80;99398.91;4470225;32;34839;-73
2022/03/03 01:20:18;;;;;;;19.75;9.48;;;;;;;-0.12;51.65;99403.25;4439744;32;35089;-74
2022/03/03 01:22:46;;;;;;;19.50;10.15;;;;;;;-0.14;50.98;99393.75;4440507;32;35257;-73
2022/03/03 01:25:15;;;;;;;24.83;11.05;;;;;;;0.18;50.67;99387.12;4453843;32;33507;-73
2022/03/03 01:27:45;;;;;;;17.80;8.93;;;;;;;-0.75;54.01;99387.44;4440001;32;34825;-74
2022/03/03 01:30:14;;;;;;;24.73;11.48;;;;;;;-0.82;54.64;99378.69;4453663;32;36386;-74
2022/03/03 01:32:43;;;;;;;19.73;9.40;;;;;;;-0.49;53.62;99375.56;4440541;32;35273;-75
2022/03/03 01:35:11;;;;;;;27.42;10.82;;;;;;;0.21;51.54;99378.66;4456160;32;33159;-74
2022/03/03 01:37:40;;;;;;;23.62;9.45;;;;;;;-0.51;52.84;99372.06;4453375;32;34688;-73
2022/03/03 01:40:10;;;;;;;18.15;8.90;;;;;;;-0.73;53.95;99375.59;4466949;32;35180;-73
2022/03/03 01:42:39;;;;;;;26.50;10.40;;;;;;;-0.08;52.94;99382.03;4442436;32;34337;-73
2022/03/03 01:45:09;;;;;;;24.45;9.38;;;;;;;0.16;51.60;99374.28;4448308;32;32372;-73
2022/03/03 01:47:38;;;;;;;25.48;9.38;;;;;;;-0.96;54.87;99381.59;4453531;32;33183;-73
2022/03/03 01:50:07;;;;;;;19.30;8.32;;;;;;;-0.57;53.59;99376.16;4453884;32;35770;-73
2022/03/03 01:52:36;;;;;;;21.17;8.30;;;;;;;-0.55;53.96;99365.09;4439732;32;34559;-73
2022/03/03 01:55:05;;;;;;;16.75;8.82;;;;;;;-0.03;51.40;99366.84;4453100;32;33508;-73
2022/03/03 01:57:34;;;;;;;23.48;9.90;;;;;;;-0.14;51.35;99366.50;4439466;32;33956;-75
2022/03/03 02:00:05;;;;;;;16.58;7.80;;;;;;;-1.39;55.87;99358.75;4454119;32;35083;-79
2022/03/03 02:02:38;;;;;;;16.85;7.72;;;;;;;-0.35;53.86;99360.66;4437437;32;33747;-73
2022/03/03 02:05:08;;;;;;;14.87;8.35;;;;;;;-0.98;55.61;99355.13;4442721;32;33657;-73
2022/03/03 02:07:37;;;;;;;17.35;8.30;;;;;;;-0.28;53.18;99354.91;4467685;32;34801;-73
2022/03/03 02:10:06;;;;;;;11.93;7.03;;;;;;;-0.82;55.13;99356.53;4443004;32;35489;-74
2022/03/03 02:12:35;;;;;;;14.10;7.97;;;;;;;-0.33;52.96;99352.22;4448435;32;34387;-73
2022/03/03 02:15:04;;;;;;;16.73;7.47;;;;;;;-1.07;56.10;99349.69;4469218;32;33925;-73
2022/03/03 02:17:33;;;;;;;18.73;7.85;;;;;;;-0.60;54.39;99350.50;4445127;32;36030;-73
2022/03/03 02:20:07;;;;;;;13.52;7.15;;;;;;;-0.63;54.26;99344.41;4439626;32;35008;-77
2022/03/03 02:22:36;;;;;;;19.27;7.97;;;;;;;-0.51;54.05;99337.16;4461389;32;34895;-73
2022/03/03 02:25:06;;;;;;;16.08;8.07;;;;;;;-1.27;57.14;99335.31;4442711;32;33525;-72
2022/03/03 02:27:34;;;;;;;14.05;7.22;;;;;;;-1.26;55.88;99334.53;4458924;32;33884;-74
2022/03/03 02:30:04;;;;;;;15.85;8.48;;;;;;;-0.63;54.36;99331.63;4453269;32;35179;-79
2022/03/03 02:32:34;;;;;;;17.65;9.27;;;;;;;-0.89;55.55;99328.16;4442615;32;34571;-74
2022/03/03 02:35:03;;;;;;;20.25;8.18;;;;;;;-1.68;58.67;99337.22;4453288;32;34397;-80
2022/03/03 02:37:37;;;;;;;31.98;8.45;;;;;;;-0.99;56.53;99337.19;4426123;32;33100;-79
2022/03/03 02:40:09;;;;;;;19.90;8.27;;;;;;;-0.54;54.60;99325.94;4439357;32;35997;-73
2022/03/03 02:42:38;;;;;;;14.65;8.10;;;;;;;-1.31;56.77;99325.81;4445591;32;35217;-73
2022/03/03 02:45:07;;;;;;;20.20;7.62;;;;;;;-1.33;57.92;99335.97;4454623;32;32850;-73
2022/03/03 02:47:40;;;;;;;21.42;8.77;;;;;;;-1.50;58.46;99335.38;4453974;32;33166;-73
2022/03/03 02:50:12;;;;;;;13.93;7.68;;;;;;;-0.70;55.38;99333.09;4470995;32;35032;-73
2022/03/03 02:52:41;;;;;;;18.08;8.75;;;;;;;-1.78;57.05;99331.78;4469681;32;35223;-73
2022/03/03 02:55:12;;;;;;;15.52;8.93;;;;;;;-1.97;59.39;99326.78;4457063;32;33549;-73
2022/03/03 02:57:56;;;;;;;26.95;8.98;;;;;;;-1.93;60.92;99331.16;4446255;32;33688;-73
2022/03/03 03:00:27;;;;;;;16.42;8.25;;;;;;;-1.74;59.46;99330.19;4455347;32;35214;-74
2022/03/03 03:02:56;;;;;;;16.77;8.25;;;;;;;-0.72;55.79;99326.16;4454632;32;34473;-73
2022/03/03 03:05:27;;;;;;;19.37;8.93;;;;;;;-0.53;54.70;99312.31;4441576;32;33384;-74
2022/03/03 03:07:55;;;;;;;13.77;7.28;;;;;;;-1.27;55.47;99304.66;4452990;32;34025;-74
2022/03/03 03:10:23;;;;;;;13.40;7.20;;;;;;;-1.39;56.88;99305.13;4470933;32;35933;-74
2022/03/03 03:12:52;;;;;;;17.25;7.90;;;;;;;-0.94;55.19;99314.34;4452154;32;34346;-77
2022/03/03 03:15:21;;;;;;;16.90;9.23;;;;;;;-0.99;56.62;99321.84;4441570;32;33457;-73
2022/03/03 03:17:49;;;;;;;18.70;8.65;;;;;;;-2.12;60.94;99320.25;4465343;32;34830;-73
2022/03/03 03:20:18;;;;;;;12.63;6.72;;;;;;;-1.67;59.90;99318.53;4470503;32;35784;-73
2022/03/03 03:22:49;;;;;;;18.35;9.27;;;;;;;-0.83;56.39;99320.69;4455866;32;34430;-73
2022/03/03 03:25:17;;;;;;;18.42;8.20;;;;;;;-1.77;59.29;99323.28;4457343;32;33443;-74
2022/03/03 03:27:45;;;;;;;14.07;7.93;;;;;;;-2.13;59.81;99323.59;4459250;32;33960;-74
2022/03/03 03:30:14;;;;;;;18.35;7.75;;;;;;;-2.38;59.17;99321.75;4453450;32;34604;-79
2022/03/03 03:32:43;;;;;;;19.80;8.40;;;;;;;-1.97;60.12;99326.78;4462498;32;34531;-74
2022/03/03 03:35:12;;;;;;;10.60;6.60;;;;;;;-1.94;60.90;99325.19;4441157;32;32270;-78
2022/03/03 03:37:41;;;;;;;18.05;8.63;;;;;;;-1.10;57.25;99326.56;4440641;32;34197;-73
2022/03/03 03:40:10;;;;;;;12.73;7.97;;;;;;;-0.61;55.54;99320.59;4428675;32;35017;-73
2022/03/03 03:42:39;;;;;;;18.25;9.10;;;;;;;-0.69;55.54;99311.81;4444753;32;35330;-73
2022/03/03 03:45:08;;;;;;;15.70;6.97;;;;;;;-0.76;55.73;99320.09;4454262;32;33698;-73
2022/03/03 03:47:37;;;;;;;18.35;8.02;;;;;;;-0.90;55.47;99317.06;4428185;32;34148;-73
2022/03/03 03:50:08;;;;;;;16.87;8.13;;;;;;;-2.52;60.84;99318.66;4428429;32;35108;-72
2022/03/03 03:52:37;;;;;;;14.50;7.53;;;;;;;-1.76;59.21;99325.03;4460454;32;33570;-73
2022/03/03 03:55:07;;;;;;;13.62;7.80;;;;;;;-2.46;60.39;99327.34;4470639;32;33702;-73
2022/03/03 03:57:35;;;;;;;14.50;7.57;;;;;;;-1.34;56.80;99330.00;4442227;32;33791;-73
2022/03/03 04:00:08;;;;;;;18.17;8.90;;;;;;;-2.28;59.83;99335.75;4454538;32;34892;-73
2022/03/03 04:02:42;;;;;;;18.80;10.00;;;;;;;-2.13;58.41;99327.84;4460091;32;34582;-73
2022/03/03 04:05:12;;;;;;;15.07;8.63;;;;;;;-1.84;57.19;99325.56;4470652;32;33527;-73
2022/03/03 04:07:41;;;;;;;13.35;7.68;;;;;;;-2.38;60.71;99321.75;4436959;32;34689;-74
2022/03/03 04:10:09;;;;;;;18.23;8.82;;;;;;;-1.35;56.90;99322.28;4453549;32;34833;-73
2022/03/03 04:12:39;;;;;;;14.80;7.53;;;;;;;-2.19;58.79;99318.28;4449470;32;35256;-73
2022/03/03 04:15:09;;;;;;;13.65;8.27;;;;;;;-1.34;56.81;99316.38;4440369;32;33477;-73
2022/03/03 04:17:38;;;;;;;22.35;9.38;;;;;;;-1.16;54.57;99314.47;4433239;32;32875;-73
2022/03/03 04:20:07;;;;;;;21.12;9.52;;;;;;;-2.85;61.30;99315.56;4470350;32;35899;-73
2022/03/03 04:22:36;;;;;;;14.95;8.60;;;;;;;-2.33;59.03;99314.28;4455122;32;34406;-73
2022/03/03 04:25:06;;;;;;;16.02;9.25;;;;;;;-2.24;58.05;99311.22;4443333;32;32759;-74
2022/03/03 04:27:35;;;;;;;23.75;10.00;;;;;;;-1.64;56.86;99303.31;4437840;32;33989;-74
2022/03/03 04:30:11;;;;;;;19.10;9.40;;;;;;;-1.52;56.79;99308.88;4441080;32;35994;-80
2022/03/03 04:32:41;;;;;;;;;;;;;;;-2.32;60.04;99311.78;4443915;32;34531;-73
2022/03/03 04:35:10;;;;;;;24.70;11.80;;;;;;;-1.39;56.79;99300.00;4441041;32;33193;-73
2022/03/03 04:37:38;;;;;;;28.62;12.55;;;;;;;-2.95;61.97;99300.69;4458654;32;33902;-74
2022/03/03 04:40:07;;;;;;;28.85;13.40;;;;;;;-2.20;59.15;99298.66;4456130;32;34982;-74
2022/03/03 04:42:36;;;;;;;19.98;11.75;;;;;;;-2.15;59.52;99291.22;4468722;32;35240;-74
2022/03/03 04:45:05;;;;;;;23.23;11.20;;;;;;;-2.77;62.52;99290.41;4456320;32;33523;-74
2022/03/03 04:47:34;;;;;;;29.12;10.82;;;;;;;-2.75;62.49;99299.00;4451139;32;35218;-80
2022/03/03 04:50:04;;;;;;;30.70;13.77;;;;;;;-1.43;57.29;99295.59;4454616;32;35047;-76
2022/03/03 04:52:33;;;;;;;23.80;12.10;;;;;;;-2.81;62.04;99301.28;4431561;32;35225;-79
2022/03/03 04:55:04;;;;;;;21.23;10.52;;;;;;;-2.67;62.71;99297.63;4469950;32;34298;-75
2022/03/03 04:57:34;;;;;;;31.02;11.93;;;;;;;-1.75;58.55;99311.47;4468699;32;34223;-79
2022/03/03 05:00:04;;;;;;;25.98;12.88;;;;;;;-1.25;55.39;99300.47;4452431;32;35134;-73
2022/03/03 05:02:37;;;;;;;24.15;11.40;;;;;;;-2.13;58.28;99303.19;4467645;32;34302;-74
2022/03/03 05:05:06;;;;;;;30.88;11.90;;;;;;;-1.34;56.31;99298.50;4451558;32;33103;-72
2022/03/03 05:07:34;;;;;;;23.27;11.93;;;;;;;-1.86;57.57;99301.66;4440443;32;33882;-71
2022/03/03 05:10:03;;;;;;;25.40;12.25;;;;;;;-1.87;58.22;99299.91;4453067;32;35008;-72
2022/03/03 05:12:33;;;;;;;31.90;13.80;;;;;;;-2.76;61.71;99293.00;4427640;32;34191;-79
2022/03/03 05:15:02;;;;;;;23.70;11.65;;;;;;;-3.07;63.51;99296.84;4441081;32;33649;-78
2022/03/03 05:17:31;;;;;;;31.42;14.35;;;;;;;-1.84;59.03;99293.22;4469644;32;33796;-77
2022/03/03 05:20:00;;;;;;;22.37;11.15;;;;;;;-2.26;59.06;99295.84;4454582;32;35118;-74
2022/03/03 05:22:29;;;;;;;19.17;10.38;;;;;;;-2.83;62.82;99295.25;4469667;32;34474;-78
2022/03/03 05:24:58;;;;;;;21.27;10.57;;;;;;;-2.72;61.36;99289.81;4453142;32;34419;-77
2022/03/03 05:27:33;;;;;;;21.12;10.63;;;;;;;-1.58;56.25;99298.47;4439467;32;33927;-77
2022/03/03 05:30:04;;;;;;;27.90;12.30;;;;;;;-2.19;58.38;99300.41;4454672;32;35498;-76
2022/03/03 05:32:36;;;;;;;19.65;10.73;;;;;;;-2.49;61.04;99294.94;4456087;32;34464;-80
2022/03/03 05:35:07;;;;;;;19.70;11.12;;;;;;;-1.84;58.24;99300.87;4454542;32;34823;-78
2022/03/03 05:37:40;;;;;;;20.52;10.70;;;;;;;-1.65;57.34;99302.47;4469554;32;33948;-80
2022/03/03 05:40:22;;;;;;;24.17;11.43;;;;;;;-1.68;56.77;99296.38;4447240;32;34597;-79
2022/03/03 05:42:55;;;;;;;20.48;10.30;;;;;;;-1.71;57.58;99307.34;4453191;32;35200;-80
2022/03/03 05:45:25;;;;;;;28.50;12.32;;;;;;;-2.63;58.99;99302.06;4434315;32;31941;-80
2022/03/03 05:47:56;;;;;;;19.20;9.93;;;;;;;-2.79;61.61;99292.87;4469431;32;33518;-80
2022/03/03 05:50:25;;;;;;;22.73;10.63;;;;;;;-2.73;62.44;99295.69;4468094;32;35927;-71
2022/03/03 05:52:54;;;;;;;24.90;11.60;;;;;;;-1.70;59.34;99298.88;4467405;32;35333;-79
2022/03/03 05:55:23;;;;;;;37.55;13.15;;;;;;;-2.21;60.75;99294.38;4455496;32;34443;-79
2022/03/03 05:57:53;;;;;;;20.42;11.45;;;;;;;-2.11;61.42;99301.56;4449767;32;32234;-74
2022/03/03 06:00:26;;;;;;;24.33;11.40;;;;;;;-1.42;59.76;99300.75;4439823;32;34869;-80
2022/03/03 06:02:59;;;;;;;21.83;10.20;;;;;;;-1.56;57.48;99304.47;4436315;32;34509;-80
2022/03/03 06:05:46;;;;;;;24.83;10.90;;;;;;;-0.82;57.80;99299.44;4435906;32;33347;-74
2022/03/03 06:08:58;;;;;;;21.67;10.32;;;;;;;0.50;54.34;99298.44;4448165;32;33973;-70
2022/03/03 06:11:27;;;;;;;29.83;11.75;;;;;;;1.07;53.68;99296.59;4445520;32;34803;-76
2022/03/03 06:14:07;;;;;;;22.20;12.18;;;;;;;1.80;51.64;99301.81;4451875;32;34144;-73
2022/03/03 06:16:39;;;;;;;21.87;10.50;;;;;;;2.81;48.20;99303.19;4452224;32;34456;-80
2022/03/03 06:19:08;;;;;;;27.92;13.43;;;;;;;3.76;46.10;99296.28;4450737;32;34003;-76
2022/03/03 06:21:36;;;;;;;30.65;12.65;;;;;;;4.14;45.76;99298.56;4453409;32;34819;-78
2022/03/03 06:24:06;;;;;;;23.10;12.90;;;;;;;4.17;46.56;99296.03;4454085;32;35119;-79
2022/03/03 06:26:36;;;;;;;28.42;13.45;;;;;;;4.56;46.05;99297.41;4454500;32;34440;-75
2022/03/03 06:29:04;;;;;;;29.15;13.70;;;;;;;4.93;44.84;99293.56;4443014;32;33411;-78
2022/03/03 06:31:33;;;;;;;23.20;12.13;;;;;;;2.73;51.36;99297.00;4439970;32;35954;-82
2022/03/03 06:34:02;;;;;;;25.00;11.38;;;;;;;2.80;52.29;99302.28;4438465;32;34328;-80
2022/03/03 06:36:30;;;;;;;23.20;11.60;;;;;;;2.93;51.48;99299.94;4438952;32;34362;-84
2022/03/03 06:38:59;;;;;;;25.37;12.80;;;;;;;2.77;51.67;99298.78;4438304;32;33876;-81
2022/03/03 06:41:30;;;;;;;29.98;13.93;;;;;;;2.96;51.39;99305.16;4438901;32;35909;-74
2022/03/03 06:43:59;;;;;;;22.23;12.55;;;;;;;3.53;51.20;99312.22;4439449;32;33799;-74
2022/03/03 06:46:28;;;;;;;27.73;12.80;;;;;;;2.81;53.01;99319.47;4439488;32;34378;-75
2022/03/03 06:48:58;;;;;;;31.58;12.88;;;;;;;4.17;47.12;99316.66;4438483;32;33947;-79
2022/03/03 06:51:41;;;;;;;35.58;14.57;;;;;;;5.83;42.98;99310.75;4438733;32;34374;-75
2022/03/03 06:54:15;;;;;;;27.27;13.88;;;;;;;4.42;46.30;99306.69;4428187;32;33699;-77
2022/03/03 06:56:49;;;;;;;26.50;14.52;;;;;;;4.41;45.45;99312.69;4439562;32;33539;-82
2022/03/03 06:59:21;;;;;;;28.90;14.43;;;;;;;4.06;46.29;99308.78;4428001;32;365620;-80
2022/03/03 07:01:51;;;;;;;31.20;15.73;;;;;;;3.93;47.10;99318.00;4448198;32;35130;-82
2022/03/03 07:04:29;;;;;;;31.15;13.27;;;;;;;3.85;47.50;99321.28;4439889;32;33709;-72
2022/03/03 07:07:04;;;;;;;29.67;14.05;;;;;;;3.66;48.47;99317.56;4444788;32;32231;-77
2022/03/03 07:09:38;;;;;;;31.08;13.73;;;;;;;3.09;48.78;99314.87;4438208;32;32686;-82
2022/03/03 07:12:06;;;;;;;29.48;13.93;;;;;;;2.94;49.04;99318.00;4438222;32;35332;-80
2022/03/03 07:14:34;;;;;;;28.67;14.27;;;;;;;3.48;49.69;99316.41;4425272;32;33602;-83
2022/03/03 07:17:21;;;;;;;32.33;13.75;;;;;;;4.59;47.35;99320.69;4438945;32;33513;-82
2022/03/03 07:20:16;;;;;;;36.30;15.45;;;;;;;4.54;46.87;99317.16;4439060;32;34468;-82
2022/03/03 07:23:25;;;;;;;28.50;13.60;;;;;;;5.11;45.89;99316.13;4437810;32;35893;-82
2022/03/03 07:25:57;;;;;;;29.70;15.00;;;;;;;4.51;47.01;99323.13;4439014;32;35268;-75
2022/03/03 07:28:28;;;;;;;34.92;15.93;;;;;;;5.29;44.85;99312.00;4439062;32;34397;-82
2022/03/03 07:31:02;;;;;;;30.00;14.02;;;;;;;6.10;43.50;99311.84;4437921;32;33940;-79
2022/03/03 07:33:34;;;;;;;36.05;15.13;;;;;;;4.64;45.74;99320.72;4439164;32;35229;-82
2022/03/03 07:36:09;;;;;;;28.73;13.40;;;;;;;5.98;42.77;99314.34;4439060;32;34590;-75
2022/03/03 07:38:39;;;;;;;25.25;13.57;;;;;;;5.58;44.30;99314.87;4437980;32;34325;-79
2022/03/03 07:41:09;;;;;;;27.73;12.80;;;;;;;5.52;43.95;99317.38;4439071;32;34783;-82
2022/03/03 07:43:44;;;;;;;27.35;12.88;;;;;;;6.90;40.36;99314.87;4424941;32;33870;-76
2022/03/03 07:46:23;;;;;;;26.00;13.65;;;;;;;6.36;42.19;99298.22;4437726;32;35185;-76
2022/03/03 07:48:53;;;;;;;27.27;13.98;;;;;;;6.05;44.87;99304.09;4439040;32;34380;-76
2022/03/03 07:51:23;;;;;;;31.50;14.87;;;;;;;6.52;43.13;99294.84;4437541;32;33491;-81
2022/03/03 07:53:52;;;;;;;30.35;12.95;;;;;;;7.06;41.50;99304.53;4438870;32;35068;-79
2022/03/03 07:56:29;;;;;;;26.98;13.65;;;;;;;6.70;40.70;99293.22;4437481;32;34436;-79
2022/03/03 07:59:05;;;;;;;28.60;14.55;;;;;;;6.10;43.40;99290.31;4437521;32;34488;-82
2022/03/03 08:01:36;;;;;;;24.45;12.18;;;;;;;6.18;42.66;99289.50;4437345;32;33866;-83
2022/03/03 08:04:11;;;;;;;25.20;13.73;;;;;;;7.55;40.18;99289.09;4437753;32;35802;-80
2022/03/03 08:06:39;;;;;;;25.40;13.55;;;;;;;7.72;40.24;99284.78;4439022;32;35361;-81
2022/03/03 08:09:09;;;;;;;26.87;14.13;;;;;;;8.78;37.94;99283.72;4437623;32;33782;-81
2022/03/03 08:11:40;;;;;;;24.85;14.35;;;;;;;8.40;38.29;99279.50;4438654;32;34103;-81
2022/03/03 08:14:10;;;;;;;20.77;10.38;;;;;;;8.28;39.62;99287.31;4437932;32;35484;-82
2022/03/03 08:16:43;;;;;;;19.70;9.20;;;;;;;8.07;38.26;99296.00;4437772;32;34626;-81
2022/03/03 08:19:15;;;;;;;21.33;10.65;;;;;;;8.86;36.06;99284.56;4438862;32;33665;-83
2022/03/03 08:21:48;;;;;;;18.12;9.43;;;;;;;8.67;36.73;99288.09;4438667;32;34823;-80
2022/03/03 08:24:34;;;;;;;18.10;9.43;;;;;;;7.62;37.70;99283.03;4438402;32;35123;-81
2022/03/03 08:27:03;;;;;;;25.90;10.25;;;;;;;9.01;35.62;99282.75;4425297;32;33736;-76
2022/03/03 08:29:32;;;;;;;23.95;10.30;;;;;;;8.99;35.61;99276.69;4437556;32;33608;-71
2022/03/03 08:32:04;;;;;;;20.62;10.52;;;;;;;8.72;36.09;99279.41;4438800;32;32812;-72
2022/03/03 08:34:45;;;;;;;18.85;10.40;;;;;;;9.01;35.71;99273.22;4438454;32;35136;-71
2022/03/03 08:37:36;;;;;;;20.30;10.35;;;;;;;8.93;35.59;99280.19;4437554;32;35225;-74
2022/03/03 08:40:12;;;;;;;18.40;9.57;;;;;;;8.69;36.50;99273.38;4438651;32;34351;-71
2022/03/03 08:42:48;;;;;;;19.90;9.43;;;;;;;8.81;35.42;99283.72;4438596;32;33879;-71
2022/03/03 08:45:22;;;;;;;18.08;9.65;;;;;;;8.77;35.63;99279.41;4437804;32;34553;-70
2022/03/03 08:47:58;;;;;;;21.25;9.63;;;;;;;9.23;35.81;99271.34;4438509;32;34378;-71
2022/03/03 08:50:32;;;;;;;21.50;10.38;;;;;;;8.74;34.82;99269.03;4438599;32;33378;-71
2022/03/03 08:53:04;;;;;;;19.95;9.55;;;;;;;9.50;34.46;99277.25;4437569;32;33845;-71
2022/03/03 08:55:34;;;;;;;20.10;9.68;;;;;;;9.81;34.54;99263.97;4438473;32;34255;-71
2022/03/03 08:58:14;;;;;;;21.37;12.57;;;;;;;9.55;34.01;99261.59;4439123;32;34591;-71
2022/03/03 09:00:45;;;;;;;13.52;7.45;;;;;;;9.46;34.59;99259.94;4453710;32;32399;-71
2022/03/03 09:03:15;;;;;;;20.58;9.55;;;;;;;10.42;32.62;99266.00;4460178;32;34763;-71
2022/03/03 09:05:45;;;;;;;22.10;9.80;;;;;;;10.12;33.49;99256.75;4455357;32;35799;-70
2022/03/03 09:08:13;;;;;;;25.33;10.38;;;;;;;10.89;32.29;99260.22;4468090;32;35204;-70
2022/03/03 09:10:41;;;;;;;21.67;11.00;;;;;;;10.08;34.06;99260.25;4453767;32;33349;-70
2022/03/03 09:13:10;;;;;;;21.20;9.70;;;;;;;9.93;33.80;99269.06;4454462;32;33888;-70
2022/03/03 09:15:38;;;;;;;20.00;10.23;;;;;;;10.04;32.84;99274.16;4454110;32;35167;-70
2022/03/03 09:18:06;;;;;;;17.52;8.63;;;;;;;9.41;35.10;99270.37;4454397;32;34364;-71
2022/03/03 09:20:35;;;;;;;18.58;9.85;;;;;;;10.23;34.04;99272.25;4461453;32;34284;-72
2022/03/03 09:23:05;;;;;;;18.65;8.60;;;;;;;10.20;33.77;99275.75;4469999;32;33756;-72
2022/03/03 09:26:03;;;;;;;15.05;7.95;;;;;;;11.88;30.52;99280.47;4466979;32;36003;-72
2022/03/03 09:28:43;;;;;;;15.02;8.90;;;;;;;11.57;31.07;99279.19;4469906;32;34514;-72
2022/03/03 09:31:28;;;;;;;22.10;10.07;;;;;;;12.14;30.06;99278.28;4466697;32;33462;-71
2022/03/03 09:34:06;;;;;;;14.40;6.95;;;;;;;11.35;31.47;99277.81;4454212;32;33505;-71
2022/03/03 09:36:34;;;;;;;24.20;10.43;;;;;;;11.22;31.20;99273.66;4452965;32;35898;-73
2022/03/03 09:39:03;;;;;;;23.58;9.93;;;;;;;11.63;31.16;99272.16;4439697;32;33704;-71
2022/03/03 09:41:31;;;;;;;18.60;9.38;;;;;;;12.15;30.26;99279.13;4453549;32;33818;-70
2022/03/03 09:43:59;;;;;;;19.10;10.05;;;;;;;11.95;30.38;99277.75;4453478;32;34717;-69
2022/03/03 09:46:27;;;;;;;18.60;8.15;;;;;;;11.11;30.69;99268.59;4439691;32;35516;-69
2022/03/03 09:48:55;;;;;;;15.68;9.15;;;;;;;11.00;31.82;99268.75;4440123;32;34419;-70
2022/03/03 09:51:26;;;;;;;16.62;8.45;;;;;;;10.37;32.72;99267.78;4452077;32;34171;-71
2022/03/03 09:53:55;;;;;;;21.12;9.35;;;;;;;11.57;30.96;99263.53;4440026;32;34842;-71
2022/03/03 09:56:24;;;;;;;17.77;8.15;;;;;;;11.08;31.27;99261.72;4453694;32;35027;-71
2022/03/03 09:58:52;;;;;;;26.02;9.65;;;;;;;12.32;30.61;99256.19;4441811;32;35115;-70
2022/03/03 10:01:21;;;;;;;15.25;8.48;;;;;;;11.37;31.28;99257.81;4454548;32;34426;-70
2022/03/03 10:03:50;;;;;;;19.37;9.52;;;;;;;12.09;30.07;99258.38;4455062;32;34083;-70
2022/03/03 10:06:21;;;;;;;17.10;9.20;;;;;;;13.15;28.90;99253.59;4466548;32;36021;-71
2022/03/03 10:08:52;;;;;;;22.13;9.93;;;;;;;13.05;29.02;99260.78;4457554;32;35024;-68
2022/03/03 10:11:20;;;;;;;19.15;9.88;;;;;;;13.54;27.77;99244.91;4444726;32;34181;-70
2022/03/03 10:13:53;;;;;;;18.08;9.77;;;;;;;13.53;28.31;99256.25;4455779;32;34672;-72
2022/03/03 10:16:24;;;;;;;19.77;10.25;;;;;;;12.32;29.83;99250.97;4455170;32;35906;-72
2022/03/03 10:19:04;;;;;;;15.85;8.50;;;;;;;12.93;29.08;99253.19;4455052;32;34627;-72
2022/03/03 10:21:38;;;;;;;14.77;8.20;;;;;;;14.81;26.91;99253.72;4455141;32;33698;-72
2022/03/03 10:24:16;;;;;;;15.65;7.97;;;;;;;15.34;26.24;99258.25;4455745;32;33997;-72
2022/03/03 10:26:46;;;;;;;13.27;7.15;;;;;;;16.03;24.43;99249.91;4468985;32;35770;-72
2022/03/03 10:29:19;;;;;;;12.10;7.60;;;;;;;16.67;23.59;99234.41;4471202;32;33716;-72
2022/03/03 10:31:50;;;;;;;16.55;7.43;;;;;;;16.09;24.24;99242.66;4455259;32;33788;-73
2022/03/03 10:34:22;;;;;;;14.73;7.72;;;;;;;15.42;24.99;99231.75;4454647;32;34130;-72
2022/03/03 10:37:01;;;;;;;14.07;8.38;;;;;;;16.06;24.51;99237.50;4471154;32;35142;-72
2022/03/03 10:39:40;;;;;;;19.50;8.48;;;;;;;15.24;25.26;99236.69;4443151;32;33943;-72
2022/03/03 10:42:13;;;;;;;14.85;7.68;;;;;;;15.60;25.10;99244.28;4471111;32;33458;-72
2022/03/03 10:44:41;;;;;;;18.27;8.35;;;;;;;15.72;25.01;99241.25;4469731;32;34799;-72
2022/03/03 10:47:11;;;;;;;15.38;9.10;;;;;;;14.25;26.91;99228.19;4471003;32;35013;-72
2022/03/03 10:49:44;;;;;;;13.43;8.00;;;;;;;14.30;26.86;99228.09;4469992;32;36062;-72
2022/03/03 10:52:26;;;;;;;15.43;8.13;;;;;;;14.46;26.70;99223.28;4471177;32;34293;-72
2022/03/03 10:54:55;;;;;;;19.87;8.40;;;;;;;14.54;25.83;99214.28;4455532;32;33852;-72
2022/03/03 10:57:44;;;;;;;15.95;8.68;;;;;;;14.95;25.99;99214.84;4454918;32;34987;-72
2022/03/03 11:00:21;;;;;;;15.25;7.65;;;;;;;14.44;26.73;99207.59;4455298;32;35100;-72
2022/03/03 11:02:51;;;;;;;17.58;8.80;;;;;;;15.05;25.12;99214.56;4440657;32;33364;-72
2022/03/03 11:05:22;;;;;;;16.23;8.18;;;;;;;13.64;27.50;99214.97;4447580;32;33649;-73
2022/03/03 11:07:53;;;;;;;16.25;8.73;;;;;;;13.45;27.80;99209.34;4469199;32;35132;-72
2022/03/03 11:10:25;;;;;;;14.05;8.20;;;;;;;12.89;28.43;99204.53;4464126;32;33586;-71
2022/03/03 11:12:53;;;;;;;17.58;8.35;;;;;;;14.05;26.63;99194.72;4441084;32;33458;-73
2022/03/03 11:15:24;;;;;;;12.27;7.25;;;;;;;13.89;27.86;99188.16;4455196;32;33912;-73
2022/03/03 11:17:52;;;;;;;13.52;7.25;;;;;;;12.76;28.17;99187.38;4455890;32;34919;-73
2022/03/03 11:20:23;;;;;;;13.35;7.57;;;;;;;12.92;28.77;99188.78;4441461;32;35333;-72
2022/03/03 11:22:55;;;;;;;16.95;8.65;;;;;;;12.37;29.07;99184.72;4453829;32;33662;-73
2022/03/03 11:25:32;;;;;;;16.25;7.90;;;;;;;11.97;31.01;99193.37;4455320;32;34026;-73
2022/03/03 11:28:07;;;;;;;14.87;8.13;;;;;;;13.21;28.57;99188.09;4440759;32;35818;-73
2022/03/03 11:30:36;;;;;;;16.60;8.80;;;;;;;13.58;28.23;99175.88;4455189;32;34517;-73
2022/03/03 11:33:27;;;;;;;16.90;8.50;;;;;;;13.04;30.16;99178.03;4456559;32;34390;-72
2022/03/03 11:36:04;;;;;;;13.62;8.02;;;;;;;15.34;26.48;99175.16;4470218;32;33954;-72
2022/03/03 11:38:51;;;;;;;17.70;8.27;;;;;;;13.51;27.98;99171.72;4455801;32;34942;-73
2022/03/03 11:41:25;;;;;;;15.65;9.13;;;;;;;13.28;27.65;99170.50;4453069;32;34212;-73
2022/03/03 11:44:02;;;;;;;18.85;9.35;;;;;;;14.07;27.41;99161.50;4454494;32;33495;-72